Tropical Cyclones
[Index]
Main Index Home Page Stock Weather Photos Extreme Storms Discussion Storm News and Storm Chasing Reports Tropical Cyclones / Hurricanes / Typhoons Weather Data and Links Wild Fires / Bushfires Weather Observation Techniques Weather Picture Catalogue Tornado Pictures and Reports Stock Video Footage and DVDs for sale
Season 1981-1982 Tropical Cyclone BESSI-ARMELLE Track Map
Season 1981-1982 Summaries: [BoM-AU] [JTWC-AU] [JTWC-SIO] [JTWC-SPAC] [JTWC-SH]
<<- Previous TC | JTWC 1981-1982 Season | Next TC ->>

click for intensity scale information  Lat/long Grid: Show Hide

 Date Labels: Show Hide

Joint Typhoon Warning Centre Cyclone Data

Name: BESSI-ARMELLE

03 Nov 1981 18:00 UTC to 11 Nov 1981 18:00 UTC

    date/time    lat    long     hPa   cat  kts
1981-11-03 18    8.6    92.9            2     55          
1981-11-04 00    8.8    92.5            2     55          
1981-11-04 06    9.2    91.7            2     55          
1981-11-04 12   10.3    90.8            1     50          
1981-11-04 18   10.3    89.6            1     50          
1981-11-05 00    9.6    88.3            1     50          
1981-11-05 06    9.0    87.1            1     50          
1981-11-05 12    8.4    85.8            1     40          
1981-11-05 18    8.0    85.0            1     40          
1981-11-06 00    9.7    87.4            1     45          
1981-11-06 06   10.4    88.8            1     50          
1981-11-06 12   10.1    88.9            1     50          
1981-11-06 18   10.0    88.3            1     50          
1981-11-07 00   10.2    87.2            2     55          
1981-11-07 06   10.7    86.8            2     55          
1981-11-07 12   11.7    87.0            2     60          
1981-11-07 18   12.2    87.1            2     65          
1981-11-08 00   12.4    87.1            2     70          
1981-11-08 06   12.5    86.8            2     70          
1981-11-08 12   12.7    85.7            3     80          
1981-11-08 18   12.7    85.0            3     80          
1981-11-09 00   12.2    85.1            3     75          
1981-11-09 06   12.0    84.7            2     70          
1981-11-09 12   12.0    82.9            2     65          
1981-11-09 18   11.8    82.2            2     65          
1981-11-10 00   10.8    82.8            2     60          
1981-11-10 06   10.4    82.9            2     55          
1981-11-10 12   10.4    82.5            1     50          
1981-11-10 18   10.4    82.0            1     50          
1981-11-11 00   10.4    81.5            1     50          
1981-11-11 06   10.4    80.7            1     50          
1981-11-11 12   11.0    79.5            1     50          
1981-11-11 18   12.0    78.0            1     50          
Winds are 1-min average.

Tropical cyclone tracks developed by Michael Bath using data from the Joint Typhoon Warning Centre Best Tracks and Google Maps.


[Australian Severe Weather index] [Copyright Notice] [Email Contacts] [Search This Site] [Privacy Policy]
Document: tropical_cyclone_bessi-armelle.htm Updated: 18 September 2016